Angora, NE

11:36 PM MST on January 28, 2015 (GMT -0700)
Wayne Rd. | Change Station
CLOSE
Current Station
Personal Weather Station
Location: Alliance, NE
Elevation: 4091 ft
Nearby Weather Stations

Elev 4091 ft 42.02 °N, 103.05 °W | Updated 12 minutes ago

Partly Cloudy
Partly Cloudy
30.4 °F
Feels Like 30 °F
N
2.0
Wind Variable Wind from NNE
Gusts 3.0 mph

Today
High -- | Low -- °F
--% Chance of Precip.
Yesterday
High -- | Low -- °F
Precip. -- in
7:08 AM 5:02 PM
Waxing Gibbous, 71% visible
Pressure 30.28 in
Visibility 10.0 miles
Clouds Clear
Windchill 30 °F
Dew Point 26 °F
Humidity 85%
Rainfall 0.00 in
Snow Depth Not available.
UV 0 out of 12
Pollen 2.30 out of 12
Air Quality Not available.
Flu Activity Not available.
METAR KAIA 290553Z AUTO 01008KT 10SM CLR M01/M03 A3027 RMK AO2 SLP254 T10111033 10072 21011 51033

More Conditions Fewer Conditions

Pressure 30.28 in
Visibility 10.0 miles
Clouds Clear
Windchill 30 °F
Dew Point 26 °F
Humidity 85%
Rainfall 0.00 in
Snow Depth Not available.
UV 0 out of 12
Pollen 2.30 out of 12
Air Quality Not available.
Flu Activity Not available.
METAR KAIA 290553Z AUTO 01008KT 10SM CLR M01/M03 A3027 RMK AO2 SLP254 T10111033 10072 21011 51033

More Conditions Fewer Conditions

10-Day Weather Forecast

Almanac

Astronomy

Jan. 28, 2015 Rise Set
Actual Time
Civil Twilight
Nautical Twilight
Astronomical Twilight
Moon
Length of Visible Light
Length of Day
Tomorrow will be .
, % of the Moon is Illuminated

Today's Extremes

State Highs State Lows

Community

WunderPhotos

Upload Photos

1,791,377 photos uploaded!

WunderBlogs® & News

Nearby

Air Quality

  Air Quality AQ Index Pollutant
Not available.

Snow Depth

Station Depth Elevation

Earthquake Activity

City Distance Mag. Time & Date
Minimum magnitude displayed is 2.5.

Coastal Water Temperatures

Place Temperature

Nearby Weather Stations